Time;durP1;ratioP1;P1;durP2;ratioP2;P2;SDS_P1;SDS_P2;PMS_P1;PMS_P2;Temp;Humidity;BMP_temperature;BMP_pressure;BME280_temperature;BME280_humidity;BME280_pressure;Samples;Min_cycle;Max_cycle;Signal;HPM_P1;HPM_P2
2023/11/23 00:02:07;;;;;;;2.00;1.90;;;6.50;99.90;;;;;;5069009;28;20202;-77
2023/11/23 00:04:34;;;;;;;2.20;2.10;;;6.60;99.90;;;;;;5071033;28;20222;-77
2023/11/23 00:07:02;;;;;;;2.00;1.90;;;6.50;99.90;;;;;;5072987;28;20198;-79
2023/11/23 00:09:29;;;;;;;2.00;1.90;;;6.40;99.90;;;;;;5068071;28;20213;-80
2023/11/23 00:11:56;;;;;;;2.28;2.17;;;6.40;99.90;;;;;;5070829;28;20198;-78
2023/11/23 00:14:23;;;;;;;2.20;2.10;;;6.40;99.90;;;;;;5073393;28;20218;-83
2023/11/23 00:16:50;;;;;;;1.75;1.75;;;6.40;99.90;;;;;;5069055;28;20202;-77
2023/11/23 00:19:18;;;;;;;1.95;1.83;;;6.40;99.90;;;;;;5069836;28;20215;-78
2023/11/23 00:21:45;;;;;;;2.08;1.98;;;6.40;99.90;;;;;;5071111;28;20297;-77
2023/11/23 00:24:12;;;;;;;2.03;1.98;;;6.30;99.90;;;;;;5069965;28;20351;-77
2023/11/23 00:26:40;;;;;;;1.80;1.70;;;6.30;99.90;;;;;;5069343;28;20222;-77
2023/11/23 00:29:07;;;;;;;1.88;1.88;;;6.30;99.90;;;;;;5071157;28;20737;-79
2023/11/23 00:31:34;;;;;;;2.00;1.90;;;6.30;99.90;;;;;;5070694;28;20680;-79
2023/11/23 00:34:05;;;;;;;2.65;2.50;;;6.30;99.90;;;;;;5072104;28;20773;-81
2023/11/23 00:36:33;;;;;;;2.40;2.30;;;6.30;99.90;;;;;;5067121;28;20226;-77
2023/11/23 00:39:00;;;;;;;2.90;2.60;;;6.30;99.90;;;;;;5066313;28;20269;-77
2023/11/23 00:41:27;;;;;;;2.30;2.20;;;6.20;99.90;;;;;;5069343;28;20214;-77
2023/11/23 00:43:54;;;;;;;2.30;2.20;;;6.20;99.90;;;;;;5069594;28;20230;-77
2023/11/23 00:46:21;;;;;;;2.22;2.13;;;6.20;99.90;;;;;;5065897;28;20222;-77
2023/11/23 00:48:48;;;;;;;2.35;2.25;;;6.20;99.90;;;;;;5070025;28;20779;-79
2023/11/23 00:51:16;;;;;;;1.98;1.88;;;6.20;99.90;;;;;;5066261;28;20218;-82
2023/11/23 00:53:44;;;;;;;2.22;2.13;;;6.30;99.90;;;;;;5071680;28;20271;-77
2023/11/23 00:56:11;;;;;;;1.90;1.80;;;6.20;99.90;;;;;;5069906;28;20221;-78
2023/11/23 00:58:38;;;;;;;2.10;2.00;;;6.10;99.90;;;;;;5070840;28;20282;-80
2023/11/23 01:01:05;;;;;;;2.10;2.00;;;6.00;99.90;;;;;;5069137;28;20633;-77
2023/11/23 01:03:32;;;;;;;1.75;1.65;;;6.00;99.90;;;;;;5071563;28;20259;-77
2023/11/23 01:05:59;;;;;;;2.28;2.17;;;6.00;99.90;;;;;;5070195;28;20222;-79
2023/11/23 01:08:26;;;;;;;1.88;1.80;;;6.00;99.90;;;;;;5066843;28;20195;-77
2023/11/23 01:10:55;;;;;;;2.17;2.08;;;6.00;99.90;;;;;;5072747;28;20222;-80
2023/11/23 01:13:22;;;;;;;2.05;1.95;;;6.00;99.90;;;;;;5072342;28;20218;-77
2023/11/23 01:15:49;;;;;;;2.10;2.00;;;6.00;99.90;;;;;;5069539;28;20272;-77
2023/11/23 01:18:16;;;;;;;1.85;1.75;;;6.00;99.90;;;;;;5069116;28;20222;-81
2023/11/23 01:20:43;;;;;;;2.55;2.20;;;6.00;99.90;;;;;;5064386;28;20218;-77
2023/11/23 01:23:11;;;;;;;1.63;1.63;;;6.00;99.90;;;;;;5068437;28;20222;-83
2023/11/23 01:25:38;;;;;;;2.20;2.10;;;6.00;99.90;;;;;;5072303;28;20312;-76
2023/11/23 01:28:06;;;;;;;2.20;2.10;;;6.00;99.90;;;;;;5067182;28;20199;-77
2023/11/23 01:30:33;;;;;;;2.30;2.20;;;6.00;99.90;;;;;;5071341;28;20214;-82
2023/11/23 01:33:00;;;;;;;2.28;2.00;;;5.90;99.90;;;;;;5067616;28;20612;-81
2023/11/23 01:35:27;;;;;;;2.10;2.00;;;5.80;99.90;;;;;;5068376;28;20218;-81
2023/11/23 01:37:54;;;;;;;2.10;2.00;;;5.80;99.90;;;;;;5068955;28;20202;-80
2023/11/23 01:40:21;;;;;;;2.15;2.05;;;5.80;99.90;;;;;;5069607;28;20299;-78
2023/11/23 01:42:48;;;;;;;2.15;2.05;;;5.80;99.90;;;;;;5068232;28;20202;-79
2023/11/23 01:45:16;;;;;;;1.83;1.83;;;5.90;99.90;;;;;;5061428;28;20214;-80
2023/11/23 01:47:45;;;;;;;2.25;2.15;;;5.80;99.90;;;;;;5068998;28;20198;-79
2023/11/23 01:50:15;;;;;;;2.13;2.03;;;5.80;99.90;;;;;;5064616;28;20313;-80
2023/11/23 01:52:42;;;;;;;2.08;2.00;;;5.80;99.90;;;;;;5065867;28;20190;-78
2023/11/23 01:55:12;;;;;;;2.10;2.00;;;5.80;99.90;;;;;;5068247;28;20280;-79
2023/11/23 01:57:39;;;;;;;2.00;1.90;;;5.80;99.90;;;;;;5070626;28;20657;-82
2023/11/23 02:00:08;;;;;;;2.30;2.20;;;5.80;99.90;;;;;;5071617;28;20226;-79
2023/11/23 02:02:37;;;;;;;2.08;1.98;;;5.70;99.90;;;;;;5068845;28;20788;-85
2023/11/23 02:05:05;;;;;;;2.17;2.08;;;5.70;99.90;;;;;;5067596;28;20715;-82
2023/11/23 02:07:33;;;;;;;2.10;2.00;;;5.70;99.90;;;;;;5065871;28;20222;-77
2023/11/23 02:10:00;;;;;;;1.85;1.85;;;5.60;99.90;;;;;;5069063;28;20720;-77
2023/11/23 02:12:28;;;;;;;2.20;2.10;;;5.60;99.90;;;;;;5070675;28;20216;-78
2023/11/23 02:14:56;;;;;;;1.85;1.85;;;5.50;99.90;;;;;;5070788;28;20670;-78
2023/11/23 02:17:24;;;;;;;2.08;1.98;;;5.50;99.90;;;;;;5069389;28;20210;-79
2023/11/23 02:19:53;;;;;;;2.28;2.17;;;5.50;99.90;;;;;;5064031;28;20223;-79
2023/11/23 02:22:21;;;;;;;1.88;1.80;;;5.50;99.90;;;;;;5071464;28;20194;-77
2023/11/23 02:24:49;;;;;;;2.05;1.95;;;5.50;99.90;;;;;;5068258;28;20608;-80
2023/11/23 02:27:17;;;;;;;2.20;2.10;;;5.50;99.90;;;;;;5071834;28;20854;-78
2023/11/23 02:29:44;;;;;;;2.05;1.95;;;5.50;99.90;;;;;;5073970;28;20217;-82
2023/11/23 02:32:11;;;;;;;1.95;1.85;;;5.50;99.90;;;;;;5074682;28;20261;-78
2023/11/23 02:34:39;;;;;;;2.25;2.15;;;5.50;99.90;;;;;;5077260;28;20221;-80
2023/11/23 02:37:06;;;;;;;2.10;2.00;;;5.50;99.90;;;;;;5071961;28;20202;-77
2023/11/23 02:39:33;;;;;;;1.77;1.77;;;5.60;99.90;;;;;;5070055;28;20266;-77
2023/11/23 02:42:02;;;;;;;1.90;1.90;;;5.50;99.90;;;;;;5070635;28;20264;-77
2023/11/23 02:44:29;;;;;;;2.63;2.20;;;5.50;99.90;;;;;;5071875;28;20274;-77
2023/11/23 02:46:56;;;;;;;2.10;2.00;;;5.40;99.90;;;;;;5068574;28;20209;-78
2023/11/23 02:49:23;;;;;;;2.15;2.05;;;5.40;99.90;;;;;;5068822;28;20198;-82
2023/11/23 02:51:50;;;;;;;1.95;1.85;;;5.40;99.90;;;;;;5068902;28;20773;-81
2023/11/23 02:54:17;;;;;;;2.20;2.10;;;5.30;99.90;;;;;;5068898;28;20226;-77
2023/11/23 02:56:44;;;;;;;2.10;2.00;;;5.30;99.90;;;;;;5068229;28;20283;-86
2023/11/23 02:59:12;;;;;;;2.40;2.30;;;5.20;99.90;;;;;;5069406;28;20426;-79
2023/11/23 03:01:39;;;;;;;2.00;1.90;;;5.20;99.90;;;;;;5069530;28;20243;-80
2023/11/23 03:04:07;;;;;;;2.05;1.95;;;5.20;99.90;;;;;;5070170;28;20218;-79
2023/11/23 03:06:34;;;;;;;2.30;2.20;;;5.10;99.90;;;;;;5065516;28;20263;-80
2023/11/23 03:09:01;;;;;;;1.88;1.80;;;5.10;99.90;;;;;;5062612;28;20186;-78
2023/11/23 03:11:28;;;;;;;1.88;1.83;;;5.10;99.90;;;;;;5068381;28;20214;-82
2023/11/23 03:13:57;;;;;;;2.05;1.95;;;5.10;99.90;;;;;;5068532;28;20261;-82
2023/11/23 03:16:25;;;;;;;2.08;1.98;;;5.10;99.90;;;;;;5068927;28;20210;-78
2023/11/23 03:18:52;;;;;;;2.30;2.20;;;5.00;99.90;;;;;;5067893;28;20635;-82
2023/11/23 03:21:19;;;;;;;2.20;2.10;;;5.00;99.90;;;;;;5064619;28;20296;-80
2023/11/23 03:23:47;;;;;;;1.88;1.88;;;5.00;99.90;;;;;;5062551;28;20279;-82
2023/11/23 03:26:14;;;;;;;2.03;1.95;;;5.00;99.90;;;;;;5064864;28;20221;-77
2023/11/23 03:28:41;;;;;;;1.60;1.60;;;5.00;99.90;;;;;;5069668;28;20199;-80
2023/11/23 03:31:08;;;;;;;2.15;2.05;;;4.90;99.90;;;;;;5069154;28;20215;-84
2023/11/23 03:33:36;;;;;;;2.50;2.40;;;4.90;99.90;;;;;;5067407;28;20226;-86
2023/11/23 03:36:03;;;;;;;2.15;2.05;;;4.90;99.90;;;;;;5063002;28;21028;-86
2023/11/23 03:38:30;;;;;;;2.40;2.30;;;4.90;99.90;;;;;;5066622;28;20207;-81
2023/11/23 03:40:58;;;;;;;2.20;2.10;;;4.90;99.90;;;;;;5066323;28;20284;-81
2023/11/23 03:43:26;;;;;;;2.13;2.03;;;4.90;99.90;;;;;;5071735;28;20817;-78
2023/11/23 03:45:54;;;;;;;2.20;2.10;;;4.90;99.90;;;;;;5067642;28;20666;-79
2023/11/23 03:48:21;;;;;;;2.30;2.20;;;4.90;99.90;;;;;;5070150;28;20202;-79
2023/11/23 03:50:50;;;;;;;2.15;2.05;;;4.90;99.90;;;;;;5068216;28;20251;-83
2023/11/23 03:53:17;;;;;;;2.03;1.92;;;4.90;99.90;;;;;;5066778;28;20322;-80
2023/11/23 03:55:44;;;;;;;2.20;2.10;;;4.90;99.90;;;;;;5069900;28;20288;-78
2023/11/23 03:58:11;;;;;;;2.10;2.00;;;4.90;99.90;;;;;;5068655;28;20202;-77
2023/11/23 04:00:38;;;;;;;2.40;2.30;;;5.00;99.90;;;;;;5070318;28;20214;-80
2023/11/23 04:03:05;;;;;;;2.20;2.10;;;5.00;99.90;;;;;;5072076;28;20586;-79
2023/11/23 04:05:32;;;;;;;1.90;1.80;;;5.00;99.90;;;;;;5071201;28;20765;-83
2023/11/23 04:08:01;;;;;;;2.10;2.00;;;4.90;99.90;;;;;;5068821;28;20206;-82
2023/11/23 04:10:28;;;;;;;2.47;2.38;;;4.90;99.90;;;;;;5071302;28;20226;-82
2023/11/23 04:12:54;;;;;;;2.15;2.05;;;4.90;99.90;;;;;;5071284;28;20195;-77
2023/11/23 04:15:23;;;;;;;2.10;2.00;;;4.90;99.90;;;;;;5069047;28;20213;-77
2023/11/23 04:17:50;;;;;;;2.20;2.10;;;4.80;99.90;;;;;;5071344;28;20198;-79
2023/11/23 04:20:17;;;;;;;2.30;2.20;;;4.80;99.90;;;;;;5068789;28;20816;-81
2023/11/23 04:22:44;;;;;;;2.15;2.05;;;4.70;99.90;;;;;;5069331;28;20198;-78
2023/11/23 04:25:13;;;;;;;2.40;2.30;;;4.70;99.90;;;;;;5069671;28;20230;-77
2023/11/23 04:27:41;;;;;;;2.47;2.38;;;4.60;99.90;;;;;;5073149;28;20209;-84
2023/11/23 04:30:09;;;;;;;2.13;2.03;;;4.70;99.90;;;;;;5068124;28;20221;-82
2023/11/23 04:32:36;;;;;;;2.10;2.00;;;4.70;99.90;;;;;;5072539;28;20846;-84
2023/11/23 04:35:03;;;;;;;2.20;2.10;;;4.70;99.90;;;;;;5067610;28;20256;-79
2023/11/23 04:37:30;;;;;;;2.38;2.28;;;4.60;99.90;;;;;;5065865;28;20206;-76
2023/11/23 04:39:57;;;;;;;2.20;2.10;;;4.60;99.90;;;;;;5074149;28;20221;-78
2023/11/23 04:42:26;;;;;;;3.17;2.25;;;4.50;99.90;;;;;;5069823;28;20255;-82
2023/11/23 04:44:53;;;;;;;2.50;2.30;;;4.50;99.90;;;;;;5063862;28;20225;-79
2023/11/23 04:47:20;;;;;;;2.33;2.22;;;4.50;99.90;;;;;;5066913;28;20259;-81
2023/11/23 04:49:47;;;;;;;2.53;2.42;;;4.50;99.90;;;;;;5069997;28;20290;-79
2023/11/23 04:52:14;;;;;;;2.60;2.50;;;4.50;99.90;;;;;;5069960;28;20251;-82
2023/11/23 04:54:40;;;;;;;2.80;2.70;;;4.50;99.90;;;;;;5070360;28;20502;-79
2023/11/23 04:57:08;;;;;;;2.95;2.85;;;4.50;99.90;;;;;;5064921;28;20205;-76
2023/11/23 04:59:36;;;;;;;3.25;3.05;;;4.50;99.90;;;;;;5067000;28;20215;-79
2023/11/23 05:02:03;;;;;;;2.85;2.75;;;4.50;99.90;;;;;;5065939;28;20202;-80
2023/11/23 05:04:31;;;;;;;2.97;2.70;;;4.50;99.90;;;;;;5067609;28;20221;-80
2023/11/23 05:06:58;;;;;;;2.35;2.25;;;4.50;99.90;;;;;;5070270;28;20634;-80
2023/11/23 05:09:25;;;;;;;2.58;2.47;;;4.50;99.90;;;;;;5067520;28;20199;-80
2023/11/23 05:11:52;;;;;;;2.42;2.33;;;4.50;99.90;;;;;;5066540;28;20202;-78
2023/11/23 05:14:19;;;;;;;2.25;2.15;;;4.60;99.90;;;;;;5068384;28;20226;-81
2023/11/23 05:16:48;;;;;;;2.45;2.35;;;4.60;99.90;;;;;;5069749;28;20218;-85
2023/11/23 05:19:14;;;;;;;2.28;2.17;;;4.50;99.90;;;;;;5067913;28;20619;-82
2023/11/23 05:21:42;;;;;;;2.40;2.30;;;4.60;99.90;;;;;;5066613;28;20218;-77
2023/11/23 05:24:10;;;;;;;2.58;2.47;;;4.60;99.90;;;;;;5069708;28;20641;-80
2023/11/23 05:26:37;;;;;;;2.33;2.22;;;4.60;99.90;;;;;;5070351;28;20218;-80
2023/11/23 05:29:03;;;;;;;2.70;2.60;;;4.60;99.90;;;;;;5067537;28;20206;-81
2023/11/23 05:31:31;;;;;;;3.00;2.80;;;4.60;99.90;;;;;;5068691;28;20221;-80
2023/11/23 05:33:59;;;;;;;2.40;2.20;;;4.60;99.90;;;;;;5062747;28;20641;-78
2023/11/23 05:36:26;;;;;;;2.72;2.63;;;4.60;99.90;;;;;;5069395;28;20260;-80
2023/11/23 05:38:53;;;;;;;2.40;2.30;;;4.60;99.90;;;;;;5068193;28;20830;-78
2023/11/23 05:41:20;;;;;;;3.20;3.00;;;4.60;99.90;;;;;;5065496;28;20276;-81
2023/11/23 05:43:48;;;;;;;2.65;2.45;;;4.60;99.90;;;;;;5069508;28;20279;-77
2023/11/23 05:46:17;;;;;;;2.67;2.47;;;4.50;99.90;;;;;;5062566;28;20223;-79
2023/11/23 05:48:44;;;;;;;2.60;2.50;;;4.40;99.90;;;;;;5068362;28;20198;-81
2023/11/23 05:51:13;;;;;;;2.50;2.30;;;4.30;99.90;;;;;;5067884;28;20233;-83
2023/11/23 05:53:42;;;;;;;2.47;2.38;;;4.30;99.90;;;;;;5068453;28;20229;-79
2023/11/23 05:56:09;;;;;;;2.00;1.90;;;4.20;99.90;;;;;;5068694;28;20275;-80
2023/11/23 05:58:36;;;;;;;2.53;2.42;;;4.30;99.90;;;;;;5069101;28;20313;-83
2023/11/23 06:01:03;;;;;;;2.60;2.50;;;4.30;99.90;;;;;;5065326;28;20633;-81
2023/11/23 06:03:30;;;;;;;2.88;2.78;;;4.30;99.90;;;;;;5068903;28;20317;-82
2023/11/23 06:05:57;;;;;;;3.00;2.90;;;4.40;99.90;;;;;;5069340;28;20334;-81
2023/11/23 06:08:28;;;;;;;2.63;2.53;;;4.40;99.90;;;;;;5067867;28;20198;-81
2023/11/23 06:10:54;;;;;;;2.60;2.50;;;4.40;99.90;;;;;;5065121;28;20219;-79
2023/11/23 06:13:21;;;;;;;2.95;2.85;;;4.40;99.90;;;;;;5069964;28;20226;-81
2023/11/23 06:15:50;;;;;;;3.47;3.28;;;4.50;99.90;;;;;;5066478;28;20226;-82
2023/11/23 06:18:18;;;;;;;2.72;2.63;;;4.50;99.90;;;;;;5068222;28;20600;-77
2023/11/23 06:20:46;;;;;;;2.67;2.58;;;4.50;99.90;;;;;;5061662;28;20218;-85
2023/11/23 06:23:12;;;;;;;2.95;2.85;;;4.40;99.90;;;;;;5062599;28;20226;-84
2023/11/23 06:25:41;;;;;;;2.53;2.42;;;4.40;99.90;;;;;;5066333;28;20276;-86
2023/11/23 06:28:08;;;;;;;2.70;2.60;;;4.40;99.90;;;;;;5070123;28;20668;-86
2023/11/23 06:30:35;;;;;;;2.58;2.47;;;4.30;99.90;;;;;;5061284;28;20214;-82
2023/11/23 06:33:02;;;;;;;2.45;2.35;;;4.40;99.90;;;;;;5068560;28;20206;-88
2023/11/23 06:35:29;;;;;;;2.80;2.70;;;4.30;99.90;;;;;;5067998;28;20788;-81
2023/11/23 06:37:57;;;;;;;2.70;2.60;;;4.40;99.90;;;;;;5067118;28;20206;-81
2023/11/23 06:40:24;;;;;;;2.50;2.40;;;4.40;99.90;;;;;;5060632;28;20375;-86
2023/11/23 06:42:52;;;;;;;2.30;2.20;;;4.30;99.90;;;;;;5060505;28;20209;-86
2023/11/23 06:45:19;;;;;;;3.40;3.15;;;4.30;99.90;;;;;;5062160;28;20279;-84
2023/11/23 06:47:46;;;;;;;3.10;2.90;;;4.30;99.90;;;;;;5063484;28;20267;-80
2023/11/23 06:50:14;;;;;;;3.92;3.63;;;4.30;99.90;;;;;;5061737;28;20265;-80
2023/11/23 06:52:41;;;;;;;3.10;2.90;;;4.30;99.90;;;;;;5059581;28;20284;-79
2023/11/23 06:55:10;;;;;;;2.95;2.75;;;4.30;99.90;;;;;;5064573;28;20226;-82
2023/11/23 06:57:39;;;;;;;3.20;3.00;;;4.30;99.90;;;;;;5063041;28;20289;-83
2023/11/23 07:00:16;;;;;;;2.88;2.70;;;4.30;99.90;;;;;;5065609;28;20228;-87
2023/11/23 07:02:43;;;;;;;2.90;2.80;;;4.30;99.90;;;;;;5059962;28;20572;-81
2023/11/23 07:05:11;;;;;;;2.88;2.78;;;4.40;99.90;;;;;;5062252;28;20226;-83
2023/11/23 07:07:38;;;;;;;3.20;3.00;;;4.40;99.90;;;;;;5058446;28;20199;-84
2023/11/23 07:10:07;;;;;;;2.58;2.47;;;4.40;99.90;;;;;;5062156;28;20257;-87
2023/11/23 07:12:35;;;;;;;2.83;2.70;;;4.40;99.90;;;;;;5068352;28;21004;-82
2023/11/23 07:15:02;;;;;;;2.67;2.58;;;4.40;99.90;;;;;;5064051;28;20283;-83
2023/11/23 07:17:30;;;;;;;2.50;2.40;;;4.30;99.90;;;;;;5064441;28;20224;-85
2023/11/23 07:19:57;;;;;;;2.45;2.35;;;4.30;99.90;;;;;;5064898;28;20222;-85
2023/11/23 07:22:24;;;;;;;2.80;2.60;;;4.30;99.90;;;;;;5065391;28;20279;-86
2023/11/23 07:24:51;;;;;;;2.80;2.70;;;4.40;99.90;;;;;;5059891;28;20252;-85
2023/11/23 07:27:17;;;;;;;2.75;2.50;;;4.40;99.90;;;;;;5066455;28;20205;-82
2023/11/23 07:29:45;;;;;;;4.03;3.50;;;4.40;99.90;;;;;;5064723;28;20221;-83
2023/11/23 07:32:12;;;;;;;2.58;2.47;;;4.50;99.90;;;;;;5064579;28;20210;-82
2023/11/23 07:34:40;;;;;;;2.53;2.42;;;4.40;99.90;;;;;;5066942;28;20217;-83
2023/11/23 07:37:08;;;;;;;2.72;2.63;;;4.40;99.90;;;;;;5065283;28;20194;-81
2023/11/23 07:39:35;;;;;;;2.70;2.60;;;4.40;99.90;;;;;;5069075;28;20613;-80
2023/11/23 07:42:03;;;;;;;2.55;2.45;;;4.50;99.90;;;;;;5065130;28;20218;-87
2023/11/23 07:44:30;;;;;;;2.50;2.40;;;4.50;99.90;;;;;;5067432;28;20284;-81
2023/11/23 07:46:57;;;;;;;2.63;2.53;;;4.50;99.90;;;;;;5066812;28;20931;-80
2023/11/23 07:49:25;;;;;;;2.58;2.47;;;4.50;99.90;;;;;;5065996;28;20226;-82
2023/11/23 07:51:55;;;;;;;2.80;2.70;;;4.50;99.90;;;;;;5066771;28;20209;-79
2023/11/23 07:54:22;;;;;;;3.50;3.22;;;4.60;99.90;;;;;;5064733;28;20244;-80
2023/11/23 07:56:50;;;;;;;4.32;4.03;;;4.70;99.90;;;;;;5065260;28;20276;-82
2023/11/23 07:59:18;;;;;;;5.50;5.20;;;5.50;99.90;;;;;;5065392;28;20198;-83
2023/11/23 08:01:45;;;;;;;5.60;5.10;;;6.70;99.90;;;;;;5068013;28;20238;-79
2023/11/23 08:04:12;;;;;;;4.57;4.18;;;7.80;99.90;;;;;;5062815;28;20222;-82
2023/11/23 08:06:39;;;;;;;3.90;3.60;;;8.60;99.90;;;;;;5063228;28;20249;-78
2023/11/23 08:09:10;;;;;;;3.45;3.25;;;9.20;99.90;;;;;;5068296;28;20234;-83
2023/11/23 08:11:37;;;;;;;2.92;2.60;;;9.60;99.90;;;;;;5065980;28;20267;-78
2023/11/23 08:14:04;;;;;;;3.20;3.00;;;10.20;99.90;;;;;;5067064;28;20285;-83
2023/11/23 08:16:31;;;;;;;2.80;2.60;;;10.80;99.90;;;;;;5069072;28;20250;-82
2023/11/23 08:18:58;;;;;;;3.13;2.90;;;11.30;99.90;;;;;;5062512;28;20580;-79
2023/11/23 08:21:25;;;;;;;3.42;2.97;;;11.40;99.90;;;;;;5071260;28;20214;-81
2023/11/23 08:23:52;;;;;;;3.30;3.00;;;11.50;99.90;;;;;;5065820;28;20287;-81
2023/11/23 08:26:21;;;;;;;2.78;2.58;;;11.90;99.90;;;;;;5065659;28;20226;-78
2023/11/23 08:28:49;;;;;;;2.70;2.50;;;12.20;99.90;;;;;;5066686;28;20207;-79
2023/11/23 08:31:16;;;;;;;4.55;2.55;;;12.30;99.90;;;;;;5065403;28;20216;-78
2023/11/23 08:33:43;;;;;;;2.65;2.45;;;12.20;99.90;;;;;;5069669;28;20321;-79
2023/11/23 08:36:10;;;;;;;3.00;2.72;;;12.30;99.90;;;;;;5066599;28;20649;-83
2023/11/23 08:38:38;;;;;;;2.72;2.53;;;12.60;99.90;;;;;;5069013;28;20206;-84
2023/11/23 08:41:05;;;;;;;2.45;2.35;;;12.90;99.90;;;;;;5065827;28;20249;-85
2023/11/23 08:43:36;;;;;;;2.67;2.47;;;13.00;99.90;;;;;;5067662;28;20246;-84
2023/11/23 08:46:03;;;;;;;2.65;2.50;;;13.20;99.90;;;;;;5064681;28;20245;-81
2023/11/23 08:48:30;;;;;;;2.72;2.42;;;13.20;99.90;;;;;;5061995;28;20230;-78
2023/11/23 08:50:57;;;;;;;3.42;2.72;;;13.30;99.90;;;;;;5063527;28;20240;-85
2023/11/23 08:53:24;;;;;;;2.53;2.33;;;13.50;99.90;;;;;;5065796;28;20210;-87
2023/11/23 08:55:54;;;;;;;2.25;2.15;;;13.60;99.90;;;;;;5061292;28;20257;-80
2023/11/23 08:58:21;;;;;;;3.13;2.90;;;13.90;99.90;;;;;;5061816;28;20297;-85
2023/11/23 09:00:49;;;;;;;2.80;2.60;;;14.40;99.90;;;;;;5065616;28;20252;-80
2023/11/23 09:03:17;;;;;;;2.65;2.45;;;14.80;99.90;;;;;;5062838;28;20221;-78
2023/11/23 09:05:44;;;;;;;3.35;3.05;;;15.70;99.90;;;;;;5061685;28;20313;-82
2023/11/23 09:08:11;;;;;;;3.10;2.90;;;17.20;99.30;;;;;;5066543;28;20208;-85
2023/11/23 09:10:38;;;;;;;2.70;2.50;;;18.70;94.10;;;;;;5064478;28;20238;-79
2023/11/23 09:13:05;;;;;;;2.80;2.50;;;20.10;89.20;;;;;;5064956;28;20883;-83
2023/11/23 09:15:32;;;;;;;2.00;1.90;;;21.10;78.90;;;;;;5063073;28;20288;-88
2023/11/23 09:18:01;;;;;;;2.30;2.10;;;22.00;74.40;;;;;;5067307;28;20206;-82
2023/11/23 09:20:28;;;;;;;2.30;2.10;;;22.70;64.30;;;;;;5065058;28;20256;-87
2023/11/23 09:22:55;;;;;;;2.15;1.95;;;22.70;62.00;;;;;;5063395;28;20259;-80
2023/11/23 09:25:22;;;;;;;3.60;2.00;;;22.90;59.10;;;;;;5063431;28;20306;-79
2023/11/23 09:27:50;;;;;;;2.25;2.10;;;23.00;57.70;;;;;;5071276;28;20202;-81
2023/11/23 09:30:17;;;;;;;2.30;2.10;;;22.90;57.80;;;;;;5067974;28;20246;-83
2023/11/23 09:32:44;;;;;;;2.50;2.30;;;22.50;57.30;;;;;;5064745;28;22332;-81
2023/11/23 09:35:12;;;;;;;2.05;1.85;;;21.60;58.70;;;;;;5067608;28;20217;-81
2023/11/23 09:37:40;;;;;;;4.60;2.20;;;20.40;60.90;;;;;;5062742;28;20210;-86
2023/11/23 09:40:11;;;;;;;2.45;2.25;;;19.00;64.10;;;;;;5063953;28;20260;-86
2023/11/23 09:42:38;;;;;;;2.55;2.35;;;17.80;69.00;;;;;;5066227;28;20602;-84
2023/11/23 09:45:08;;;;;;;2.40;2.20;;;17.10;72.00;;;;;;5061534;28;20234;-89
2023/11/23 09:47:36;;;;;;;2.25;2.05;;;16.30;75.80;;;;;;5064856;28;20905;-84
2023/11/23 09:50:03;;;;;;;2.47;2.28;;;16.10;77.70;;;;;;5062102;28;20218;-83
2023/11/23 09:52:33;;;;;;;2.40;2.20;;;15.80;79.00;;;;;;5060176;28;20190;-86
2023/11/23 09:55:01;;;;;;;2.20;2.00;;;15.80;80.10;;;;;;5055473;28;20704;-84
2023/11/23 09:57:28;;;;;;;2.08;1.98;;;16.00;80.50;;;;;;5057888;28;20198;-88
2023/11/23 09:59:56;;;;;;;2.42;2.22;;;15.90;79.50;;;;;;5058188;28;20922;-79
2023/11/23 10:02:25;;;;;;;1.98;1.77;;;15.50;78.90;;;;;;5055314;28;20214;-85
2023/11/23 10:04:56;;;;;;;2.30;2.00;;;15.20;82.30;;;;;;5060234;28;20252;-83
2023/11/23 10:07:26;;;;;;;2.42;2.22;;;15.20;83.60;;;;;;5059665;28;20191;-87
2023/11/23 10:09:55;;;;;;;2.45;2.17;;;15.50;85.00;;;;;;5057393;28;20293;-87
2023/11/23 10:12:23;;;;;;;2.90;1.90;;;15.70;84.00;;;;;;5057677;28;20194;-80
2023/11/23 10:14:53;;;;;;;2.83;2.08;;;15.80;84.80;;;;;;5060234;28;20238;-81
2023/11/23 10:17:20;;;;;;;2.22;1.90;;;16.10;85.20;;;;;;5064555;28;20604;-81
2023/11/23 10:19:47;;;;;;;4.63;2.47;;;16.30;83.30;;;;;;5063870;28;20677;-85
2023/11/23 10:22:15;;;;;;;2.58;2.13;;;16.40;81.70;;;;;;5060361;28;20217;-82
2023/11/23 10:24:48;;;;;;;2.92;2.38;;;16.40;79.40;;;;;;5060539;28;20226;-84
2023/11/23 10:27:18;;;;;;;3.25;2.08;;;15.60;79.20;;;;;;5064072;28;20680;-87
2023/11/23 10:29:47;;;;;;;5.57;2.63;;;15.50;82.30;;;;;;5058294;28;20907;-83
2023/11/23 10:32:16;;;;;;;2.35;2.15;;;15.40;89.40;;;;;;5061232;28;20237;-82
2023/11/23 10:34:44;;;;;;;2.17;2.03;;;15.60;93.00;;;;;;5061086;28;20293;-83
2023/11/23 10:37:16;;;;;;;3.47;2.45;;;16.00;91.10;;;;;;5062104;28;20256;-81
2023/11/23 10:39:45;;;;;;;6.57;1.85;;;16.30;91.80;;;;;;5061631;28;20236;-83
2023/11/23 10:42:13;;;;;;;3.30;2.30;;;16.60;91.30;;;;;;5063685;28;20305;-86
2023/11/23 10:44:41;;;;;;;2.67;2.42;;;16.70;90.40;;;;;;5061108;28;20752;-85
2023/11/23 10:47:10;;;;;;;2.97;2.50;;;16.60;88.10;;;;;;5066529;28;20630;-79
2023/11/23 10:49:40;;;;;;;3.15;2.42;;;16.30;87.40;;;;;;5065218;28;20216;-81
2023/11/23 10:52:10;;;;;;;3.83;2.53;;;16.10;89.10;;;;;;5062985;28;20301;-80
2023/11/23 10:54:37;;;;;;;3.42;2.13;;;16.10;90.00;;;;;;5064004;28;20221;-86
2023/11/23 10:57:09;;;;;;;3.00;2.70;;;16.20;89.20;;;;;;5062960;28;20202;-81
2023/11/23 10:59:37;;;;;;;3.47;2.35;;;15.80;89.00;;;;;;5065373;28;20210;-84
2023/11/23 11:02:07;;;;;;;2.55;2.35;;;15.40;88.00;;;;;;5064349;28;20226;-83
2023/11/23 11:04:35;;;;;;;2.30;2.10;;;15.30;87.60;;;;;;5062135;28;20312;-79
2023/11/23 11:07:04;;;;;;;2.55;2.35;;;15.60;89.60;;;;;;5065096;28;20190;-81
2023/11/23 11:09:34;;;;;;;3.60;2.42;;;15.70;88.00;;;;;;5066288;28;20194;-79
2023/11/23 11:12:05;;;;;;;2.40;2.20;;;15.80;86.70;;;;;;5064370;28;20396;-82
2023/11/23 11:14:32;;;;;;;2.30;2.10;;;15.90;88.20;;;;;;5062746;28;20240;-83
2023/11/23 11:17:04;;;;;;;2.05;1.90;;;16.10;87.60;;;;;;5059623;28;20198;-78
2023/11/23 11:19:44;;;;;;;2.20;2.00;;;16.30;87.10;;;;;;5060639;28;20194;-79
2023/11/23 11:22:13;;;;;;;2.17;1.98;;;16.40;86.20;;;;;;5061775;28;20218;-83
2023/11/23 11:24:41;;;;;;;4.15;2.03;;;16.40;86.30;;;;;;5061266;28;20252;-85
2023/11/23 11:27:10;;;;;;;4.72;2.10;;;16.40;84.50;;;;;;5063467;28;20277;-82
2023/11/23 11:29:37;;;;;;;2.53;1.90;;;16.40;83.50;;;;;;5064706;28;20230;-81
2023/11/23 11:32:06;;;;;;;2.25;1.88;;;16.60;84.30;;;;;;5067002;28;20799;-85
2023/11/23 11:34:36;;;;;;;3.15;2.03;;;16.50;82.90;;;;;;5065023;28;20279;-86
2023/11/23 11:37:06;;;;;;;2.45;1.90;;;16.20;81.30;;;;;;5062610;28;20586;-80
2023/11/23 11:39:35;;;;;;;2.10;1.73;;;15.90;81.90;;;;;;5064593;28;20292;-86
2023/11/23 11:42:03;;;;;;;2.67;2.17;;;15.60;83.60;;;;;;5067734;28;20210;-85
2023/11/23 11:44:33;;;;;;;2.63;2.00;;;15.80;85.70;;;;;;5067608;28;20226;-86
2023/11/23 11:47:00;;;;;;;3.08;2.15;;;15.60;83.70;;;;;;5061832;28;22109;-79
2023/11/23 11:49:28;;;;;;;2.10;1.90;;;15.60;84.50;;;;;;5063714;28;20860;-85
2023/11/23 11:51:56;;;;;;;2.25;2.05;;;15.60;84.20;;;;;;5063158;28;20716;-81
2023/11/23 11:54:24;;;;;;;2.33;2.15;;;15.60;84.60;;;;;;5063397;28;20269;-83
2023/11/23 11:56:52;;;;;;;2.95;2.15;;;15.70;84.90;;;;;;5063361;28;20220;-85
2023/11/23 11:59:21;;;;;;;2.88;2.13;;;15.60;83.00;;;;;;5064324;28;20202;-80
2023/11/23 12:01:48;;;;;;;4.65;2.22;;;15.60;84.40;;;;;;5064499;28;20952;-83
2023/11/23 12:04:16;;;;;;;2.10;1.90;;;15.70;86.00;;;;;;5061214;28;21104;-83
2023/11/23 12:06:45;;;;;;;2.03;1.83;;;15.80;86.40;;;;;;5062943;28;20218;-79
2023/11/23 12:09:19;;;;;;;2.50;2.30;;;16.10;86.50;;;;;;5060746;28;20672;-86
2023/11/23 12:11:45;;;;;;;2.15;1.80;;;16.20;84.10;;;;;;5062204;28;20217;-82
2023/11/23 12:14:13;;;;;;;3.05;2.15;;;16.20;83.30;;;;;;5062262;28;20214;-82
2023/11/23 12:16:40;;;;;;;1.80;1.70;;;16.10;84.00;;;;;;5060348;28;20246;-83
2023/11/23 12:19:17;;;;;;;2.80;2.08;;;16.20;84.90;;;;;;5061331;28;20264;-81
2023/11/23 12:21:44;;;;;;;2.45;1.75;;;16.40;82.80;;;;;;5061884;28;20218;-82
2023/11/23 12:24:18;;;;;;;5.53;2.53;;;16.40;84.30;;;;;;5060954;28;20299;-81
2023/11/23 12:26:48;;;;;;;2.20;1.90;;;16.30;84.30;;;;;;5061992;28;20240;-81
2023/11/23 12:29:21;;;;;;;1.70;1.60;;;16.10;84.10;;;;;;5061764;28;20209;-79
2023/11/23 12:31:48;;;;;;;1.90;1.73;;;16.00;83.10;;;;;;5057318;28;20297;-86
2023/11/23 12:34:15;;;;;;;2.08;1.88;;;15.80;82.10;;;;;;5063878;28;20854;-83
2023/11/23 12:36:43;;;;;;;3.85;1.95;;;15.70;81.40;;;;;;5060757;28;20275;-87
2023/11/23 12:39:13;;;;;;;1.95;1.75;;;15.50;82.60;;;;;;5058375;28;20650;-85
2023/11/23 12:41:40;;;;;;;2.00;1.60;;;15.50;82.80;;;;;;5055230;28;20313;-84
2023/11/23 12:44:09;;;;;;;1.80;1.70;;;15.60;83.60;;;;;;5047301;28;20315;-81
2023/11/23 12:46:36;;;;;;;1.65;1.55;;;15.70;81.10;;;;;;5052602;28;20218;-82
2023/11/23 12:49:04;;;;;;;2.17;1.88;;;15.70;81.00;;;;;;5059712;28;20210;-84
2023/11/23 12:51:31;;;;;;;2.35;1.55;;;15.80;80.60;;;;;;5051299;28;20264;-83
2023/11/23 12:53:58;;;;;;;1.90;1.63;;;15.70;80.90;;;;;;5056664;28;20217;-80
2023/11/23 12:56:25;;;;;;;2.00;1.90;;;15.80;81.30;;;;;;5062073;28;20222;-88